Time;durP1;ratioP1;P1;durP2;ratioP2;P2;SDS_P1;SDS_P2;PMS_P1;PMS_P2;Temp;Humidity;BMP_temperature;BMP_pressure;BME280_temperature;BME280_humidity;BME280_pressure;Samples;Min_cycle;Max_cycle;Signal;HPM_P1;HPM_P2
2022/07/29 00:00:44;;;;;;;9.87;8.97;;;;;;;21.41;87.11;97976.25;4227881;28;20710;-82
2022/07/29 00:02:48;;;;;;;10.00;8.27;;;;;;;21.37;87.51;97980.22;4229277;28;20620;-82
2022/07/29 00:04:52;;;;;;;9.43;8.43;;;;;;;21.37;87.21;97982.88;4225940;28;20621;-82
2022/07/29 00:06:55;;;;;;;9.80;8.87;;;;;;;21.34;87.48;97988.53;4193386;28;20649;-82
2022/07/29 00:08:58;;;;;;;11.00;9.90;;;;;;;21.31;86.91;97983.56;4193398;28;20630;-82
2022/07/29 00:11:01;;;;;;;10.27;9.27;;;;;;;21.28;87.05;97980.44;4227049;28;21023;-82
2022/07/29 00:13:04;;;;;;;9.87;8.87;;;;;;;21.26;87.67;97986.91;4189142;28;20633;-83
2022/07/29 00:15:08;;;;;;;9.53;8.67;;;;;;;21.26;87.87;97977.16;4205252;28;20630;-83
2022/07/29 00:17:11;;;;;;;9.40;8.60;;;;;;;21.23;87.64;97979.31;4206957;28;20626;-83
2022/07/29 00:19:22;;;;;;;9.67;8.67;;;;;;;21.21;86.64;97978.66;4208873;28;20648;-83
2022/07/29 00:21:25;;;;;;;9.87;8.87;;;;;;;21.17;87.60;97972.88;4209582;28;20637;-83
2022/07/29 00:23:28;;;;;;;10.43;9.53;;;;;;;21.14;86.95;97969.72;4208636;28;20649;-83
2022/07/29 00:25:33;;;;;;;10.23;8.77;;;;;;;21.10;87.47;97965.78;4213332;28;20641;-83
2022/07/29 00:27:37;;;;;;;9.60;8.63;;;;;;;21.06;87.03;97972.41;4213941;28;20621;-83
2022/07/29 00:29:40;;;;;;;9.70;8.70;;;;;;;21.00;87.17;97962.50;4195603;28;20641;-83
2022/07/29 00:31:43;;;;;;;9.37;8.47;;;;;;;20.94;87.81;97957.88;4196599;28;20629;-83
2022/07/29 00:33:48;;;;;;;9.70;8.73;;;;;;;20.90;87.27;97961.88;4208987;28;20737;-83
2022/07/29 00:35:51;;;;;;;9.70;8.80;;;;;;;20.89;88.88;97965.53;4212100;28;20648;-83
2022/07/29 00:37:55;;;;;;;9.40;8.47;;;;;;;20.86;89.03;97960.56;4207830;28;21084;-83
2022/07/29 00:39:58;;;;;;;9.63;8.70;;;;;;;20.87;88.62;97962.22;4221617;28;20665;-83
2022/07/29 00:42:03;;;;;;;11.00;9.20;;;;;;;20.85;88.79;97956.25;4199611;28;20995;-83
2022/07/29 00:44:06;;;;;;;10.37;9.37;;;;;;;20.80;88.40;97950.66;4186908;28;20655;-83
2022/07/29 00:46:09;;;;;;;9.70;8.80;;;;;;;20.77;88.26;97944.88;4225926;28;20730;-84
2022/07/29 00:48:13;;;;;;;10.03;9.00;;;;;;;20.75;88.93;97947.69;4207075;28;21248;-83
2022/07/29 00:50:16;;;;;;;10.60;8.87;;;;;;;20.75;89.29;97947.69;4212004;28;20632;-83
2022/07/29 00:52:21;;;;;;;9.70;8.90;;;;;;;20.74;89.26;97945.19;4224458;28;20628;-82
2022/07/29 00:54:25;;;;;;;10.00;9.10;;;;;;;20.69;89.23;97937.75;4207166;28;20623;-83
2022/07/29 00:56:28;;;;;;;9.47;8.67;;;;;;;20.68;88.38;97938.75;4209475;28;20657;-83
2022/07/29 00:58:32;;;;;;;9.73;8.80;;;;;;;20.68;89.32;97938.75;4191171;28;20620;-83
2022/07/29 01:00:36;;;;;;;9.93;9.03;;;;;;;20.68;89.04;97937.94;4210295;28;20627;-83
2022/07/29 01:02:39;;;;;;;9.50;8.60;;;;;;;20.67;88.66;97937.09;4191073;28;20646;-83
2022/07/29 01:04:42;;;;;;;11.27;9.83;;;;;;;20.66;89.70;97937.22;4193193;28;20645;-83
2022/07/29 01:06:46;;;;;;;10.20;9.00;;;;;;;20.64;89.11;97932.13;4194230;28;20663;-83
2022/07/29 01:08:50;;;;;;;10.10;9.10;;;;;;;20.64;89.60;97929.47;4224331;28;20633;-83
2022/07/29 01:10:54;;;;;;;10.00;9.00;;;;;;;20.63;89.92;97929.63;4203007;28;20799;-84
2022/07/29 01:12:59;;;;;;;12.20;9.63;;;;;;;20.59;89.01;97925.66;4208877;28;20639;-82
2022/07/29 01:15:03;;;;;;;10.97;9.77;;;;;;;20.55;89.15;97919.03;4196673;28;20636;-83
2022/07/29 01:17:12;;;;;;;9.00;8.20;;;;;;;20.49;88.93;97923.22;4211912;28;20644;-83
2022/07/29 01:19:37;;;;;;;9.27;8.47;;;;;;;20.45;89.89;97923.72;4190510;28;21227;-83
2022/07/29 01:21:52;;;;;;;11.90;10.10;;;;;;;20.43;88.84;97921.25;4193472;28;20636;-83
2022/07/29 01:24:12;;;;;;;9.47;8.57;;;;;;;20.37;90.77;97924.56;4224085;28;20623;-83
2022/07/29 01:26:31;;;;;;;9.83;8.87;;;;;;;20.36;90.16;97920.25;4210706;28;20632;-83
2022/07/29 01:28:53;;;;;;;10.10;9.17;;;;;;;20.35;89.44;97934.47;4205325;28;20632;-83
2022/07/29 01:30:57;;;;;;;9.70;8.70;;;;;;;20.31;90.66;97931.53;4194840;28;20633;-83
2022/07/29 01:33:04;;;;;;;10.37;9.33;;;;;;;20.30;90.59;97929.84;4214684;28;20663;-83
2022/07/29 01:35:12;;;;;;;10.50;9.40;;;;;;;20.28;90.30;97932.69;4227292;27;20673;-83
2022/07/29 01:37:19;;;;;;;10.40;9.40;;;;;;;20.27;89.80;97927.56;4223546;27;20651;-83
2022/07/29 01:39:27;;;;;;;10.37;9.20;;;;;;;20.26;91.22;97936.50;4189201;28;20644;-83
2022/07/29 01:41:34;;;;;;;9.47;8.57;;;;;;;20.25;90.77;97927.75;4191634;28;20713;-83
2022/07/29 01:43:45;;;;;;;9.23;8.43;;;;;;;20.22;89.27;97928.09;4193027;28;20650;-82
2022/07/29 01:45:57;;;;;;;10.87;9.30;;;;;;;20.20;88.93;97918.63;4206471;28;20679;-83
2022/07/29 01:48:03;;;;;;;9.90;9.00;;;;;;;20.13;89.92;97915.00;4206399;28;21037;-83
2022/07/29 01:50:09;;;;;;;10.47;9.47;;;;;;;20.08;89.70;97918.13;4193921;28;20648;-83
2022/07/29 01:52:17;;;;;;;10.03;9.03;;;;;;;20.06;89.21;97914.03;4225975;27;20638;-83
2022/07/29 01:54:27;;;;;;;10.97;9.50;;;;;;;20.04;89.72;97918.63;4208578;28;20612;-83
2022/07/29 01:56:32;;;;;;;11.63;9.77;;;;;;;20.03;90.10;97919.66;4210806;28;20662;-83
2022/07/29 01:58:37;;;;;;;10.67;9.67;;;;;;;20.01;91.03;97927.78;4208426;28;20671;-83
2022/07/29 02:00:41;;;;;;;10.30;9.07;;;;;;;19.98;90.95;97921.94;4188660;28;21080;-83
2022/07/29 02:02:48;;;;;;;10.43;9.43;;;;;;;19.94;89.73;97918.81;4190239;28;20697;-83
2022/07/29 02:04:51;;;;;;;9.97;9.10;;;;;;;19.91;90.87;97921.00;4205021;28;20652;-83
2022/07/29 02:06:58;;;;;;;10.77;9.67;;;;;;;19.88;90.36;97918.66;4203667;28;20667;-83
2022/07/29 02:09:02;;;;;;;10.77;9.10;;;;;;;19.87;89.96;97922.31;4204158;28;21508;-83
2022/07/29 02:11:06;;;;;;;10.20;9.30;;;;;;;19.86;91.18;97924.13;4189755;28;20653;-83
2022/07/29 02:13:10;;;;;;;9.23;8.43;;;;;;;19.84;90.63;97927.91;4218278;27;20643;-83
2022/07/29 02:15:14;;;;;;;10.50;9.50;;;;;;;19.81;90.66;97930.88;4225391;27;20969;-83
2022/07/29 02:17:22;;;;;;;10.10;9.17;;;;;;;19.81;90.44;97930.06;4204339;28;20652;-83
2022/07/29 02:19:28;;;;;;;10.50;8.93;;;;;;;19.77;90.01;97932.22;4190052;28;20675;-83
2022/07/29 02:21:31;;;;;;;11.27;10.10;;;;;;;19.75;90.78;97926.22;4201284;28;20685;-83
2022/07/29 02:23:36;;;;;;;10.77;9.33;;;;;;;19.76;90.18;97924.44;4223311;28;21002;-82
2022/07/29 02:25:56;;;;;;;11.23;10.13;;;;;;;19.76;91.41;97922.59;4207666;28;20631;-83
2022/07/29 02:28:00;;;;;;;10.13;9.30;;;;;;;19.75;91.45;97922.78;4192867;28;20712;-83
2022/07/29 02:30:05;;;;;;;10.30;9.30;;;;;;;19.75;90.02;97923.59;4204297;28;21012;-83
2022/07/29 02:32:09;;;;;;;10.90;9.80;;;;;;;19.75;90.84;97922.78;4204750;28;20638;-83
2022/07/29 02:34:12;;;;;;;14.20;10.00;;;;;;;19.75;90.89;97928.06;4206264;28;21336;-83
2022/07/29 02:36:23;;;;;;;11.53;10.43;;;;;;;19.75;91.20;97926.22;4221109;28;20634;-83
2022/07/29 02:40:49;;;;;;;11.37;10.33;;;;;;;19.71;90.17;97921.44;4191398;28;20675;-83
2022/07/29 02:42:52;;;;;;;11.53;10.43;;;;;;;19.68;91.05;97924.41;4223028;28;20633;-83
2022/07/29 02:44:55;;;;;;;11.17;10.20;;;;;;;19.65;90.42;97922.94;4201813;28;20628;-83
2022/07/29 02:47:12;;;;;;;11.57;10.00;;;;;;;19.63;90.01;97930.19;4193233;28;20640;-83
2022/07/29 02:49:19;;;;;;;10.33;9.33;;;;;;;19.62;90.72;97925.91;4225048;27;21141;-83
2022/07/29 02:51:27;;;;;;;10.90;9.80;;;;;;;19.60;89.77;97922.59;4204437;28;20676;-83
2022/07/29 02:53:50;;;;;;;14.37;11.00;;;;;;;19.62;90.07;97923.28;4220664;28;21216;-83
2022/07/29 02:55:59;;;;;;;10.20;9.17;;;;;;;19.61;89.99;97926.06;4187865;28;20685;-83
2022/07/29 02:58:06;;;;;;;11.07;10.03;;;;;;;19.60;89.65;97924.41;4208694;28;20650;-83
2022/07/29 03:00:11;;;;;;;10.50;9.60;;;;;;;19.58;90.82;97929.88;4215799;28;21218;-83
2022/07/29 03:02:15;;;;;;;11.20;10.10;;;;;;;19.60;90.43;97924.41;4190817;28;20682;-84
2022/07/29 03:04:20;;;;;;;11.97;10.97;;;;;;;19.56;91.13;97926.56;4188181;28;21073;-83
2022/07/29 03:06:27;;;;;;;10.90;9.90;;;;;;;19.50;90.11;97919.28;4204163;28;20674;-82
2022/07/29 03:08:41;;;;;;;12.30;11.20;;;;;;;19.44;90.46;97921.75;4219200;28;20684;-83
2022/07/29 03:10:46;;;;;;;11.07;10.07;;;;;;;19.42;90.99;97918.44;4205991;28;20619;-83
2022/07/29 03:12:50;;;;;;;10.83;9.83;;;;;;;19.38;90.87;97917.94;4208076;28;21061;-83
2022/07/29 03:14:54;;;;;;;11.07;10.07;;;;;;;19.39;90.72;97924.06;4209224;28;20677;-83
2022/07/29 03:16:57;;;;;;;11.87;10.77;;;;;;;19.34;90.29;97913.13;4201173;28;21028;-83
2022/07/29 03:19:01;;;;;;;10.43;9.43;;;;;;;19.27;90.00;97917.41;4199592;28;21173;-83
2022/07/29 03:21:04;;;;;;;12.10;10.80;;;;;;;19.23;90.77;97920.53;4214218;28;20634;-83
2022/07/29 03:23:09;;;;;;;16.03;10.67;;;;;;;19.20;90.37;97916.41;4202926;28;20643;-83
2022/07/29 03:25:13;;;;;;;11.60;10.60;;;;;;;19.20;91.16;97918.22;4221602;28;20653;-83
2022/07/29 03:27:17;;;;;;;11.53;10.40;;;;;;;19.20;91.41;97921.72;4202922;28;20634;-83
2022/07/29 03:29:20;;;;;;;11.33;10.00;;;;;;;19.19;91.25;97919.22;4201821;28;20666;-83
2022/07/29 03:31:23;;;;;;;12.73;9.90;;;;;;;19.19;91.25;97924.53;4219832;28;21196;-83
2022/07/29 03:33:28;;;;;;;10.87;9.93;;;;;;;19.17;91.24;97916.75;4223912;28;20638;-83
2022/07/29 03:35:32;;;;;;;11.80;10.60;;;;;;;19.11;90.90;97912.09;4191378;28;20637;-83
2022/07/29 03:37:36;;;;;;;10.93;9.83;;;;;;;19.10;91.51;97909.63;4206781;28;20655;-83
2022/07/29 03:39:42;;;;;;;11.33;10.33;;;;;;;19.10;91.02;97915.72;4191900;28;20685;-83
2022/07/29 03:41:46;;;;;;;11.43;10.23;;;;;;;19.10;91.55;97907.78;4222515;28;20631;-83
2022/07/29 03:43:50;;;;;;;11.10;10.07;;;;;;;19.10;91.27;97914.91;4191912;28;20637;-83
2022/07/29 03:45:55;;;;;;;12.50;11.30;;;;;;;19.10;91.45;97912.25;4224391;28;21228;-85
2022/07/29 03:48:03;;;;;;;11.27;10.17;;;;;;;19.12;91.54;97919.03;4190987;28;20624;-83
2022/07/29 03:50:08;;;;;;;11.60;10.50;;;;;;;19.15;91.17;97921.34;4205667;28;20698;-84
2022/07/29 03:52:13;;;;;;;10.83;9.80;;;;;;;19.16;91.15;97922.19;4201965;28;20676;-84
2022/07/29 03:54:16;;;;;;;11.07;10.07;;;;;;;19.14;91.56;97922.34;4202425;28;20615;-83
2022/07/29 03:56:22;;;;;;;10.87;9.87;;;;;;;19.14;91.00;97924.16;4218622;28;20633;-84
2022/07/29 03:58:27;;;;;;;12.00;10.80;;;;;;;19.14;90.66;97924.16;4208844;28;21243;-83
2022/07/29 04:00:31;;;;;;;12.33;10.60;;;;;;;19.13;91.92;97925.16;4206815;28;21306;-84
2022/07/29 04:02:34;;;;;;;11.50;10.40;;;;;;;19.11;91.19;97917.38;4203402;28;20623;-83
2022/07/29 04:04:37;;;;;;;11.07;9.97;;;;;;;19.10;90.70;97926.31;4220411;28;20638;-84
2022/07/29 04:06:41;;;;;;;11.27;10.27;;;;;;;19.09;90.81;97929.09;4207731;28;21089;-84
2022/07/29 04:08:44;;;;;;;10.80;9.80;;;;;;;19.10;91.17;97928.94;4187301;28;20735;-84
2022/07/29 04:10:47;;;;;;;10.57;9.67;;;;;;;19.11;91.30;97921.81;4200883;28;20663;-84
2022/07/29 04:12:52;;;;;;;13.93;9.77;;;;;;;19.08;91.25;97928.28;4204296;28;20630;-84
2022/07/29 04:14:55;;;;;;;11.97;10.30;;;;;;;19.09;91.37;97937.03;4207864;28;21185;-83
2022/07/29 04:16:58;;;;;;;10.77;9.77;;;;;;;19.10;91.40;97921.00;4192681;28;20642;-84
2022/07/29 04:19:02;;;;;;;12.47;10.63;;;;;;;19.12;91.35;97929.59;4219307;28;20998;-83
2022/07/29 04:21:05;;;;;;;11.57;10.27;;;;;;;19.12;91.38;97928.78;4187798;28;20797;-83
2022/07/29 04:23:08;;;;;;;10.77;9.77;;;;;;;19.11;91.47;97940.34;4225030;28;20625;-83
2022/07/29 04:25:11;;;;;;;10.43;9.50;;;;;;;19.12;92.34;97939.38;4194118;28;20677;-84
2022/07/29 04:27:14;;;;;;;11.17;9.90;;;;;;;19.13;91.15;97938.38;4206281;28;20623;-83
2022/07/29 04:29:19;;;;;;;11.37;10.37;;;;;;;19.15;91.90;97939.84;4205372;28;20627;-84
2022/07/29 04:31:22;;;;;;;11.10;10.00;;;;;;;19.17;92.10;97939.69;4204839;28;20722;-83
2022/07/29 04:33:28;;;;;;;12.97;11.67;;;;;;;19.19;91.06;97946.50;4222589;28;20629;-84
2022/07/29 04:35:32;;;;;;;13.47;10.97;;;;;;;19.22;92.31;97948.00;4209184;28;21393;-84
2022/07/29 04:37:40;;;;;;;12.03;10.87;;;;;;;19.25;91.80;97947.69;4222551;28;20641;-83
2022/07/29 04:39:43;;;;;;;11.83;10.53;;;;;;;19.25;92.00;97951.16;4194344;28;20679;-84
2022/07/29 04:41:47;;;;;;;12.23;10.93;;;;;;;19.26;91.23;97950.16;4193176;28;20657;-84
2022/07/29 04:43:50;;;;;;;12.80;11.00;;;;;;;19.26;92.25;97951.97;4205416;28;20632;-83
2022/07/29 04:45:55;;;;;;;11.30;10.33;;;;;;;19.30;91.96;97950.66;4225058;28;20650;-83
2022/07/29 04:47:58;;;;;;;11.57;10.37;;;;;;;19.35;91.51;97951.00;4191561;28;20720;-83
2022/07/29 04:50:01;;;;;;;11.47;10.30;;;;;;;19.40;91.32;97950.34;4185752;28;21229;-83
2022/07/29 04:52:05;;;;;;;10.83;9.73;;;;;;;19.48;92.45;97952.19;4210827;28;20730;-83
2022/07/29 04:54:09;;;;;;;12.37;9.90;;;;;;;19.53;92.00;97950.72;4209792;28;20633;-83
2022/07/29 04:56:12;;;;;;;11.37;10.23;;;;;;;19.57;91.79;97954.66;4207446;28;20630;-84
2022/07/29 04:58:15;;;;;;;11.47;10.47;;;;;;;19.60;91.40;97956.16;4223482;28;20663;-84
2022/07/29 05:00:18;;;;;;;11.30;10.30;;;;;;;19.65;90.90;97949.41;4192495;28;21058;-83
2022/07/29 05:02:23;;;;;;;12.90;10.57;;;;;;;19.71;92.28;97948.75;4221414;28;20625;-83
2022/07/29 05:04:26;;;;;;;12.50;11.27;;;;;;;19.74;92.19;97956.38;4208862;28;20685;-83
2022/07/29 05:06:29;;;;;;;12.67;10.70;;;;;;;19.78;92.07;97957.69;4193796;28;20732;-83
2022/07/29 05:08:32;;;;;;;12.63;11.30;;;;;;;19.83;91.23;97958.84;4208957;28;20762;-83
2022/07/29 05:10:37;;;;;;;11.37;10.37;;;;;;;19.90;90.78;97953.75;4194324;28;20635;-83
2022/07/29 05:12:41;;;;;;;12.27;10.90;;;;;;;19.98;92.33;97969.63;4221940;28;20680;-83
2022/07/29 05:14:44;;;;;;;13.90;10.47;;;;;;;20.05;90.78;97957.38;4210267;28;20725;-83
2022/07/29 05:16:48;;;;;;;11.20;9.83;;;;;;;20.12;91.20;97963.69;4210104;28;20635;-83
2022/07/29 05:18:52;;;;;;;11.30;10.07;;;;;;;20.20;91.51;97963.66;4203735;28;20662;-83
2022/07/29 05:20:56;;;;;;;11.53;10.33;;;;;;;20.25;90.49;97964.00;4211457;28;20627;-83
2022/07/29 05:23:00;;;;;;;11.30;10.27;;;;;;;20.29;89.52;97960.03;4191880;28;20636;-83
2022/07/29 05:25:04;;;;;;;12.07;10.90;;;;;;;20.34;89.54;97962.00;4201667;28;20754;-84
2022/07/29 05:27:11;;;;;;;11.03;10.00;;;;;;;20.39;90.40;97961.50;4194162;28;20719;-83
2022/07/29 05:29:14;;;;;;;10.93;10.03;;;;;;;20.46;90.03;97959.81;4211480;28;20974;-84
2022/07/29 05:31:37;;;;;;;13.00;9.70;;;;;;;20.57;90.35;97970.91;4204100;28;21217;-84
2022/07/29 05:33:40;;;;;;;10.97;9.97;;;;;;;20.65;89.29;97959.44;4188360;28;20975;-83
2022/07/29 05:35:45;;;;;;;11.77;10.77;;;;;;;20.72;89.63;97968.38;4195645;28;20629;-83
2022/07/29 05:37:48;;;;;;;12.30;11.00;;;;;;;20.75;89.11;97962.75;4201036;28;20636;-83
2022/07/29 05:39:51;;;;;;;11.27;10.23;;;;;;;20.75;88.07;97963.59;4206479;28;20649;-82
2022/07/29 05:41:59;;;;;;;10.77;9.70;;;;;;;20.86;88.72;97965.88;4203956;28;20666;-83
2022/07/29 05:44:02;;;;;;;10.80;9.80;;;;;;;21.08;88.24;97965.09;4224210;28;21060;-83
2022/07/29 05:46:05;;;;;;;11.70;9.70;;;;;;;21.31;86.80;97969.50;4195588;28;20628;-83
2022/07/29 05:48:08;;;;;;;10.20;9.30;;;;;;;21.33;86.12;97968.31;4212012;28;20642;-83
2022/07/29 05:50:12;;;;;;;10.80;9.80;;;;;;;21.30;86.58;97971.31;4206397;28;20634;-84
2022/07/29 05:52:16;;;;;;;9.90;8.93;;;;;;;21.32;87.83;97968.50;4205435;28;21034;-83
2022/07/29 05:54:19;;;;;;;13.13;9.90;;;;;;;21.44;87.41;97973.22;4210068;28;20639;-83
2022/07/29 05:56:23;;;;;;;10.90;9.80;;;;;;;21.62;87.18;97975.63;4210369;28;20999;-83
2022/07/29 05:58:26;;;;;;;10.30;8.97;;;;;;;21.67;87.12;97983.91;4222686;27;20740;-83
2022/07/29 06:00:29;;;;;;;9.50;8.70;;;;;;;21.64;86.24;97989.59;4194730;28;20624;-83
2022/07/29 06:02:33;;;;;;;10.53;9.50;;;;;;;21.63;86.55;97982.59;4189193;28;20635;-83
2022/07/29 06:04:36;;;;;;;10.10;9.13;;;;;;;21.67;86.44;97983.91;4191410;28;21020;-83
2022/07/29 06:06:39;;;;;;;9.70;8.70;;;;;;;21.75;85.99;97990.00;4207914;28;20679;-84
2022/07/29 06:08:44;;;;;;;10.57;9.63;;;;;;;21.95;86.53;97991.16;4194771;28;20645;-83
2022/07/29 06:10:47;;;;;;;10.70;9.67;;;;;;;22.02;85.12;97994.78;4190652;28;20626;-84
2022/07/29 06:12:50;;;;;;;10.37;9.47;;;;;;;22.12;85.22;97996.19;4221852;28;20727;-83
2022/07/29 06:14:53;;;;;;;10.20;9.30;;;;;;;22.16;85.84;97994.00;4212116;28;20676;-84
2022/07/29 06:16:56;;;;;;;10.27;9.30;;;;;;;22.32;84.31;97992.88;4204784;28;21019;-84
2022/07/29 06:19:00;;;;;;;10.77;9.77;;;;;;;22.31;83.61;97991.25;4190314;28;21292;-84
2022/07/29 06:21:09;;;;;;;12.30;9.40;;;;;;;22.35;83.79;97997.03;4210942;28;20630;-85
2022/07/29 06:23:12;;;;;;;10.40;9.50;;;;;;;22.46;85.28;97997.44;4213648;28;20674;-85
2022/07/29 06:25:17;;;;;;;9.97;8.97;;;;;;;22.72;85.37;97995.19;4209738;28;20637;-84
2022/07/29 06:27:20;;;;;;;10.27;9.30;;;;;;;22.89;83.44;97999.31;4228881;28;20671;-85
2022/07/29 06:29:23;;;;;;;9.60;8.80;;;;;;;22.98;83.01;98000.91;4223223;28;20625;-84
2022/07/29 06:31:26;;;;;;;10.87;9.60;;;;;;;23.06;83.20;98000.81;4207711;28;20731;-84
2022/07/29 06:33:29;;;;;;;10.87;9.60;;;;;;;23.12;83.49;97997.41;4211245;28;20678;-84
2022/07/29 06:35:35;;;;;;;10.37;9.30;;;;;;;23.16;83.22;98001.38;4206523;28;20646;-85
2022/07/29 06:37:44;;;;;;;10.23;9.20;;;;;;;23.38;83.88;98006.59;4226812;28;20633;-85
2022/07/29 06:40:59;;;;;;;11.60;9.67;;;;;;;23.45;82.79;98005.63;4212253;28;20665;-86
2022/07/29 06:42:13;;;;;;;9.93;9.10;;;;;;;23.70;83.18;98009.66;4210921;28;20640;-86
2022/07/29 06:44:17;;;;;;;11.07;10.10;;;;;;;23.93;82.98;98021.78;4218064;28;20630;-86
2022/07/29 06:46:21;;;;;;;9.20;8.30;;;;;;;24.15;81.47;98024.28;4193053;28;20740;-86
2022/07/29 06:48:25;;;;;;;10.17;9.17;;;;;;;24.14;80.64;98021.00;4203059;28;20628;-85
2022/07/29 06:50:28;;;;;;;10.67;9.57;;;;;;;24.11;81.23;98021.38;4209725;28;20758;-85
2022/07/29 06:52:31;;;;;;;10.87;8.47;;;;;;;24.12;82.24;98025.69;4205457;28;20627;-86
2022/07/29 06:54:34;;;;;;;9.67;8.63;;;;;;;24.15;82.46;98031.47;4199967;28;21321;-86
2022/07/29 06:56:41;;;;;;;10.10;9.20;;;;;;;24.21;81.08;98028.84;4193247;28;20628;-85
2022/07/29 06:58:46;;;;;;;10.80;9.40;;;;;;;24.31;82.32;98036.53;4209568;28;20677;-86
2022/07/29 07:00:49;;;;;;;9.10;8.30;;;;;;;24.41;81.90;98032.56;4191193;28;20706;-84
2022/07/29 07:02:52;;;;;;;9.20;8.40;;;;;;;24.45;81.22;98028.50;4192652;28;22007;-84
2022/07/29 07:04:55;;;;;;;9.70;8.80;;;;;;;24.46;81.22;98016.81;4204662;28;20684;-85
2022/07/29 07:06:59;;;;;;;10.10;9.10;;;;;;;24.57;81.01;98032.31;4210093;28;20656;-85
2022/07/29 07:09:02;;;;;;;9.70;8.80;;;;;;;24.66;79.78;98031.16;4224621;28;20625;-85
2022/07/29 07:11:06;;;;;;;9.37;8.57;;;;;;;24.67;79.93;98030.09;4191662;28;21063;-86
2022/07/29 07:13:10;;;;;;;8.93;8.10;;;;;;;24.74;79.23;98023.00;4203897;28;20633;-85
2022/07/29 07:15:14;;;;;;;9.33;8.50;;;;;;;24.92;79.38;98026.00;4204497;28;20675;-86
2022/07/29 07:17:17;;;;;;;9.40;8.40;;;;;;;25.00;79.25;98013.34;4216665;28;20643;-86
2022/07/29 07:19:20;;;;;;;9.47;8.60;;;;;;;25.16;78.41;98023.72;4220637;28;21030;-86
2022/07/29 07:21:25;;;;;;;8.73;8.03;;;;;;;25.38;77.88;98031.44;4205674;28;20687;-86
2022/07/29 07:23:32;;;;;;;9.20;8.40;;;;;;;25.47;77.84;98030.25;4211519;28;21079;-86
2022/07/29 07:25:35;;;;;;;7.97;7.27;;;;;;;25.53;77.37;98029.47;4219736;28;20646;-86
2022/07/29 07:27:40;;;;;;;7.67;6.97;;;;;;;25.66;76.16;98033.06;4216889;28;20635;-86
2022/07/29 07:29:43;;;;;;;7.77;7.07;;;;;;;26.09;75.77;98035.22;4203862;28;20633;-86
2022/07/29 07:31:48;;;;;;;6.77;6.17;;;;;;;26.48;73.78;98034.50;4190038;28;20631;-86
2022/07/29 07:33:53;;;;;;;7.30;6.50;;;;;;;26.86;73.19;98033.69;4213168;28;20687;-86
2022/07/29 07:35:56;;;;;;;7.40;6.80;;;;;;;27.25;73.13;98031.78;4211430;28;20714;-86
2022/07/29 07:37:59;;;;;;;6.73;6.13;;;;;;;27.70;73.57;98045.09;4207118;28;20688;-86
2022/07/29 07:40:03;;;;;;;6.63;6.03;;;;;;;27.77;72.19;98040.50;4193401;28;20638;-86
2022/07/29 07:42:06;;;;;;;6.50;5.90;;;;;;;27.56;71.79;98043.50;4204484;28;20663;-86
2022/07/29 07:44:09;;;;;;;4.90;4.50;;;;;;;27.53;69.19;98035.88;4223136;28;20733;-86
2022/07/29 07:46:18;;;;;;;5.40;4.90;;;;;;;27.52;67.69;98036.09;4219190;28;20643;-86
2022/07/29 07:48:22;;;;;;;5.50;4.87;;;;;;;27.78;67.32;98032.22;4220794;28;20638;-86
2022/07/29 07:50:26;;;;;;;5.50;5.00;;;;;;;28.09;68.18;98040.38;4208711;28;20645;-86
2022/07/29 07:52:29;;;;;;;5.13;4.63;;;;;;;28.15;67.59;98036.84;4211814;28;21049;-86
2022/07/29 07:54:32;;;;;;;5.17;4.70;;;;;;;28.18;66.47;98031.84;4193327;28;20628;-86
2022/07/29 07:56:35;;;;;;;6.53;5.03;;;;;;;28.00;66.37;98027.41;4190751;28;21243;-84
2022/07/29 07:58:38;;;;;;;5.80;5.30;;;;;;;27.88;66.53;98023.75;4206618;28;20643;-84
2022/07/29 08:00:42;;;;;;;5.60;5.10;;;;;;;27.92;65.79;98027.63;4209077;28;20653;-80
2022/07/29 08:02:46;;;;;;;7.37;5.17;;;;;;;28.02;67.30;98026.97;4222333;28;20630;-80
2022/07/29 08:04:50;;;;;;;5.30;4.80;;;;;;;28.30;66.77;98027.44;4209491;28;20634;-80
2022/07/29 08:06:54;;;;;;;5.43;4.97;;;;;;;28.48;65.23;98029.38;4212485;28;20708;-80
2022/07/29 08:08:57;;;;;;;9.70;8.70;;;;;;;28.68;65.53;98025.53;4227286;27;20709;-80
2022/07/29 08:11:21;;;;;;;6.27;5.60;;;;;;;28.93;65.19;98029.03;4218055;27;20640;-80
2022/07/29 08:13:28;;;;;;;5.63;5.13;;;;;;;29.04;64.15;98032.63;4227037;27;20669;-80
2022/07/29 08:15:31;;;;;;;5.30;4.90;;;;;;;29.15;64.55;98026.56;4221402;28;20619;-80
2022/07/29 08:17:34;;;;;;;6.37;5.77;;;;;;;29.23;63.46;98036.19;4220014;28;20634;-80
2022/07/29 08:19:38;;;;;;;6.07;5.57;;;;;;;29.28;62.84;98029.13;4196850;28;20634;-80
2022/07/29 08:21:43;;;;;;;5.53;5.03;;;;;;;29.48;62.16;98038.63;4218776;28;21160;-80
2022/07/29 08:23:49;;;;;;;6.00;5.50;;;;;;;29.66;62.31;98032.41;4221615;28;21216;-80
2022/07/29 08:26:03;;;;;;;6.53;4.90;;;;;;;29.53;62.30;98029.91;4230708;28;20637;-80
2022/07/29 08:28:07;;;;;;;6.20;5.60;;;;;;;29.69;64.67;98034.66;4196903;28;20627;-80
2022/07/29 08:30:10;;;;;;;6.63;5.30;;;;;;;29.84;62.80;98041.31;4203899;28;20729;-81
2022/07/29 08:32:13;;;;;;;5.90;5.40;;;;;;;29.76;62.16;98024.66;4194667;28;21223;-80
2022/07/29 08:34:37;;;;;;;5.93;5.37;;;;;;;29.94;63.51;98039.72;4213508;28;20618;-80
2022/07/29 08:36:40;;;;;;;6.70;6.00;;;;;;;30.29;63.35;98042.56;4224250;28;20623;-79
2022/07/29 08:38:45;;;;;;;5.80;5.20;;;;;;;30.55;61.79;98040.31;4194943;28;20650;-79
2022/07/29 08:40:48;;;;;;;6.10;5.50;;;;;;;30.48;61.34;98043.13;4212323;28;20713;-80
2022/07/29 08:42:51;;;;;;;6.40;5.67;;;;;;;30.34;61.15;98038.19;4214446;28;20672;-80
2022/07/29 08:44:55;;;;;;;5.70;5.20;;;;;;;30.46;60.68;98030.94;4188830;28;20634;-80
2022/07/29 08:46:58;;;;;;;6.40;5.50;;;;;;;30.40;59.79;98039.13;4211684;28;20715;-80
2022/07/29 08:49:04;;;;;;;6.60;5.90;;;;;;;30.33;60.59;98035.69;4225565;28;20637;-80
2022/07/29 08:51:08;;;;;;;6.97;5.77;;;;;;;30.38;60.37;98028.56;4192237;28;20632;-80
2022/07/29 08:53:13;;;;;;;7.00;6.40;;;;;;;30.60;59.90;98033.22;4207345;28;20629;-80
2022/07/29 08:55:18;;;;;;;6.33;5.73;;;;;;;30.79;60.44;98034.75;4227561;28;21196;-80
2022/07/29 08:57:24;;;;;;;6.90;6.27;;;;;;;31.02;60.99;98032.94;4205031;28;20650;-80
2022/07/29 08:59:31;;;;;;;5.83;5.33;;;;;;;31.14;61.31;98041.84;4212071;28;20618;-80
2022/07/29 09:01:35;;;;;;;6.10;5.60;;;;;;;31.22;60.78;98040.69;4200028;28;21262;-79
2022/07/29 09:03:47;;;;;;;6.37;5.87;;;;;;;31.24;60.46;98033.97;4193077;28;20661;-79
2022/07/29 09:05:51;;;;;;;6.30;5.80;;;;;;;31.23;58.73;98024.25;4214396;28;20629;-80
2022/07/29 09:07:54;;;;;;;7.73;6.93;;;;;;;31.18;59.74;98023.31;4209029;28;20622;-80
2022/07/29 09:09:57;;;;;;;7.10;6.10;;;;;;;31.15;59.17;98027.31;4201521;28;20622;-80
2022/07/29 09:12:03;;;;;;;7.10;6.40;;;;;;;31.21;60.21;98015.56;4211294;28;20629;-80
2022/07/29 09:14:07;;;;;;;6.57;6.00;;;;;;;31.36;59.20;98023.19;4220032;27;20640;-80
2022/07/29 09:16:10;;;;;;;7.03;6.43;;;;;;;31.42;58.66;98010.44;4210693;28;21058;-80
2022/07/29 09:18:13;;;;;;;6.73;6.17;;;;;;;31.51;58.34;98021.66;4217969;28;20661;-80
2022/07/29 09:22:52;;;;;;;9.20;6.07;;;;;;;31.48;59.04;98022.13;4208277;28;20665;-80
2022/07/29 09:24:55;;;;;;;7.27;6.63;;;;;;;31.48;58.70;98022.13;4193783;28;20666;-80
2022/07/29 09:26:58;;;;;;;7.10;6.40;;;;;;;31.40;58.19;98014.41;4206406;28;20660;-80
2022/07/29 09:29:09;;;;;;;7.23;6.50;;;;;;;31.43;59.70;98019.34;4211909;28;20634;-80
2022/07/29 09:31:12;;;;;;;7.10;6.40;;;;;;;31.51;58.08;98022.50;4223604;27;20624;-80
2022/07/29 09:33:15;;;;;;;7.80;7.00;;;;;;;31.46;57.32;98014.28;4219700;28;21052;-80
2022/07/29 09:35:21;;;;;;;7.20;6.17;;;;;;;31.40;58.63;98015.22;4191580;28;21205;-80
2022/07/29 09:37:28;;;;;;;7.40;6.70;;;;;;;31.47;57.56;98009.72;4208486;28;20645;-80
2022/07/29 09:39:32;;;;;;;7.20;6.60;;;;;;;31.51;57.12;98017.13;4223560;28;20640;-80
2022/07/29 09:41:47;;;;;;;7.73;6.80;;;;;;;31.42;58.86;98013.13;4221089;28;20708;-80
2022/07/29 09:43:55;;;;;;;6.93;6.37;;;;;;;31.38;56.34;98011.13;4202225;28;20640;-80
2022/07/29 09:46:11;;;;;;;10.20;7.60;;;;;;;31.34;56.21;98001.84;4217895;28;20782;-80
2022/07/29 09:48:15;;;;;;;6.93;6.33;;;;;;;31.23;56.29;98005.38;4196540;28;20632;-81